Time;durP1;ratioP1;P1;durP2;ratioP2;P2;SDS_P1;SDS_P2;PMS_P1;PMS_P2;Temp;Humidity;BMP_temperature;BMP_pressure;BME280_temperature;BME280_humidity;BME280_pressure;Samples;Min_cycle;Max_cycle;Signal;HPM_P1;HPM_P2
2021/06/04 00:01:17;;;;;;;7.37;1.77;;;7.60;1.00;;;;;;4894875;28;20226;-80
2021/06/04 00:03:39;;;;;;;7.67;1.70;;;;;;;;;;4903539;28;20261;-81
2021/06/04 00:06:02;;;;;;;7.63;1.70;;;;;;;;;;4908610;28;20586;-79
2021/06/04 00:08:25;;;;;;;7.87;1.73;;;7.50;1.00;;;;;;4905308;28;20184;-82
2021/06/04 00:10:50;;;;;;;16.57;3.37;;;7.50;1.00;;;;;;4903915;28;21363;-82
2021/06/04 00:13:15;;;;;;;7.83;1.80;;;7.40;1.00;;;;;;4905537;28;20605;-82
2021/06/04 00:15:37;;;;;;;8.60;2.03;;;;;;;;;;4896358;28;20554;-81
2021/06/04 00:18:01;;;;;;;6.53;1.63;;;7.30;1.00;;;;;;4895907;28;20747;-82
2021/06/04 00:20:26;;;;;;;8.70;1.93;;;7.30;1.00;;;;;;4909627;28;20583;-82
2021/06/04 00:22:48;;;;;;;9.37;2.10;;;;;;;;;;4907115;28;20188;-82
2021/06/04 00:25:11;;;;;;;5.53;1.37;;;7.10;1.00;;;;;;4906530;28;20238;-83
2021/06/04 00:27:33;;;;;;;15.63;3.23;;;;;;;;;;4901420;28;20200;-83
2021/06/04 00:29:56;;;;;;;13.93;2.90;;;;;;;;;;4903424;28;20196;-83
2021/06/04 00:32:22;;;;;;;7.17;1.70;;;7.10;1.00;;;;;;4898086;28;20189;-82
2021/06/04 00:34:45;;;;;;;9.40;2.07;;;7.00;1.00;;;;;;4900390;28;20899;-83
2021/06/04 00:37:08;;;;;;;6.40;1.47;;;;;;;;;;4908182;28;20180;-83
2021/06/04 00:39:33;;;;;;;10.80;2.40;;;7.00;1.00;;;;;;4904219;28;20680;-82
2021/06/04 00:41:57;;;;;;;10.37;2.30;;;7.00;1.00;;;;;;4907149;28;20207;-83
2021/06/04 00:44:20;;;;;;;7.13;1.67;;;;;;;;;;4903972;28;20220;-82
2021/06/04 00:46:44;;;;;;;8.37;1.83;;;7.00;1.00;;;;;;4903451;28;20256;-82
2021/06/04 00:49:06;;;;;;;5.47;1.30;;;7.00;1.00;;;;;;4902293;28;20653;-76
2021/06/04 00:51:33;;;;;;;7.30;1.70;;;6.90;1.00;;;;;;4903918;28;20834;-82
2021/06/04 00:53:58;;;;;;;7.87;1.80;;;;;;;;;;4913976;28;20790;-83
2021/06/04 00:56:25;;;;;;;7.13;1.67;;;6.90;1.00;;;;;;4904547;28;20233;-82
2021/06/04 00:58:48;;;;;;;11.73;2.53;;;;;;;;;;4897675;28;20242;-82
2021/06/04 01:01:13;;;;;;;12.70;2.60;;;6.80;1.00;;;;;;4907936;28;20220;-80
2021/06/04 01:03:41;;;;;;;7.53;1.63;;;6.80;1.00;;;;;;4904952;28;20204;-83
2021/06/04 01:06:10;;;;;;;6.10;1.50;;;6.70;1.00;;;;;;4903006;28;20253;-83
2021/06/04 01:08:49;;;;;;;5.30;1.30;;;6.60;1.00;;;;;;4906908;28;20666;-83
2021/06/04 01:11:19;;;;;;;4.87;1.30;;;6.60;1.00;;;;;;4908321;28;20203;-83
2021/06/04 01:13:57;;;;;;;8.73;1.90;;;6.60;1.00;;;;;;4897303;28;20192;-82
2021/06/04 01:16:26;;;;;;;7.20;1.63;;;6.50;1.00;;;;;;4904958;28;20307;-78
2021/06/04 01:19:00;;;;;;;8.10;1.80;;;6.50;1.00;;;;;;4906121;28;20200;-83
2021/06/04 01:21:36;;;;;;;10.53;2.23;;;6.50;1.00;;;;;;4887116;28;20195;-82
2021/06/04 01:24:11;;;;;;;9.27;2.03;;;6.50;1.00;;;;;;4909021;28;20229;-84
2021/06/04 01:26:38;;;;;;;7.97;1.93;;;6.50;1.00;;;;;;4900977;28;20217;-81
2021/06/04 01:29:06;;;;;;;14.03;2.63;;;6.50;1.00;;;;;;4896162;28;20234;-80
2021/06/04 01:31:34;;;;;;;7.50;1.77;;;6.40;1.00;;;;;;4898762;28;20192;-82
2021/06/04 01:34:02;;;;;;;8.87;2.03;;;6.50;1.00;;;;;;4887108;28;20375;-83
2021/06/04 01:36:30;;;;;;;8.03;1.90;;;6.50;1.00;;;;;;4886053;28;20613;-83
2021/06/04 01:38:55;;;;;;;11.77;2.50;;;6.60;1.00;;;;;;4898316;28;20183;-81
2021/06/04 01:41:23;;;;;;;5.10;1.40;;;6.50;1.00;;;;;;4912795;28;20277;-82
2021/06/04 01:43:49;;;;;;;9.17;2.10;;;6.50;1.00;;;;;;4918042;28;20227;-83
2021/06/04 01:46:15;;;;;;;6.20;1.53;;;6.50;1.00;;;;;;4907290;28;20276;-83
2021/06/04 01:48:41;;;;;;;5.30;1.43;;;6.40;1.00;;;;;;4913176;28;20188;-82
2021/06/04 01:51:17;;;;;;;4.17;1.20;;;6.40;1.00;;;;;;4897597;28;20253;-81
2021/06/04 01:53:49;;;;;;;5.93;1.73;;;6.40;1.00;;;;;;4899845;28;20197;-83
2021/06/04 01:56:19;;;;;;;4.37;1.37;;;6.40;1.00;;;;;;4906036;28;20200;-83
2021/06/04 01:58:50;;;;;;;3.83;1.37;;;6.30;1.00;;;;;;4894326;28;20567;-83
2021/06/04 02:01:18;;;;;;;6.37;1.77;;;6.30;1.00;;;;;;4902844;28;20269;-82
2021/06/04 02:03:40;;;;;;;5.20;1.43;;;;;;;;;;4903780;28;20671;-80
2021/06/04 02:06:10;;;;;;;4.80;1.43;;;;;;;;;;4903573;28;20196;-83
2021/06/04 02:08:37;;;;;;;7.77;2.13;;;6.30;1.00;;;;;;4903150;28;20203;-83
2021/06/04 02:11:06;;;;;;;9.67;2.23;;;6.20;1.00;;;;;;4905164;28;20559;-82
2021/06/04 02:13:29;;;;;;;7.63;1.97;;;;;;;;;;4908684;28;20229;-84
2021/06/04 02:16:10;;;;;;;9.50;2.33;;;6.20;1.00;;;;;;4903229;28;20188;-84
2021/06/04 02:18:38;;;;;;;8.70;2.20;;;6.20;1.00;;;;;;4908605;28;20879;-82
2021/06/04 02:21:17;;;;;;;4.87;1.43;;;6.20;1.00;;;;;;4916355;28;20774;-83
2021/06/04 02:23:46;;;;;;;5.13;1.47;;;6.20;1.00;;;;;;4901665;28;20261;-82
2021/06/04 02:26:15;;;;;;;2.23;0.90;;;6.20;1.00;;;;;;4891100;28;20666;-84
2021/06/04 02:28:46;;;;;;;1.43;0.83;;;6.10;1.00;;;;;;4908963;28;20321;-80
2021/06/04 02:31:18;;;;;;;2.30;1.00;;;6.10;1.00;;;;;;4892208;28;20193;-84
2021/06/04 02:33:45;;;;;;;4.13;1.53;;;6.10;1.00;;;;;;4899592;28;20195;-83
2021/06/04 02:36:11;;;;;;;5.80;1.73;;;6.00;1.00;;;;;;4916674;28;20241;-83
2021/06/04 02:38:38;;;;;;;6.10;1.77;;;6.00;1.00;;;;;;4897670;28;20231;-83
2021/06/04 02:41:05;;;;;;;1.90;0.90;;;6.00;1.00;;;;;;4880820;28;20357;-78
2021/06/04 02:43:34;;;;;;;4.50;1.47;;;5.90;1.00;;;;;;4905910;28;20641;-83
2021/06/04 02:46:03;;;;;;;4.97;1.70;;;5.90;1.00;;;;;;4890913;28;20646;-83
2021/06/04 02:48:29;;;;;;;5.83;1.70;;;5.90;1.00;;;;;;4908272;28;20192;-82
2021/06/04 02:50:55;;;;;;;4.73;1.47;;;5.90;1.00;;;;;;4903389;28;20874;-83
2021/06/04 02:53:24;;;;;;;3.47;1.33;;;5.90;1.00;;;;;;4888811;28;20263;-82
2021/06/04 02:56:06;;;;;;;4.70;1.60;;;5.90;1.80;;;;;;4897509;28;20747;-82
2021/06/04 02:58:32;;;;;;;5.13;1.60;;;;;;;;;;4907673;28;20262;-83
2021/06/04 03:00:55;;;;;;;5.03;1.73;;;5.90;9.30;;;;;;4902657;28;20212;-82
2021/06/04 03:03:19;;;;;;;5.20;1.60;;;;;;;;;;4904196;28;20270;-83
2021/06/04 03:05:44;;;;;;;5.80;1.70;;;6.00;10.30;;;;;;4899856;28;20228;-82
2021/06/04 03:08:07;;;;;;;3.93;1.40;;;;;;;;;;4891135;28;20188;-82
2021/06/04 03:10:33;;;;;;;5.83;1.60;;;5.90;14.20;;;;;;4883002;28;20597;-81
2021/06/04 03:12:57;;;;;;;7.43;2.10;;;5.90;15.70;;;;;;4904498;28;20661;-82
2021/06/04 03:15:24;;;;;;;2.47;1.00;;;5.90;18.90;;;;;;4906838;28;20257;-77
2021/06/04 03:17:48;;;;;;;8.37;2.00;;;;;;;;;;4908761;28;20241;-83
2021/06/04 03:20:14;;;;;;;4.23;1.33;;;6.00;15.50;;;;;;4901762;28;20228;-84
2021/06/04 03:22:43;;;;;;;6.33;1.90;;;6.00;18.00;;;;;;4891046;28;20295;-84
2021/06/04 03:25:11;;;;;;;4.90;1.50;;;6.00;18.40;;;;;;4896676;28;20585;-83
2021/06/04 03:27:34;;;;;;;4.60;1.57;;;;;;;;;;4879817;28;20201;-82
2021/06/04 03:29:56;;;;;;;7.03;1.83;;;;;;;;;;4879209;28;20197;-83
2021/06/04 03:32:19;;;;;;;3.67;1.40;;;6.20;26.30;;;;;;4879628;28;20190;-83
2021/06/04 03:34:43;;;;;;;7.87;2.00;;;6.20;27.50;;;;;;4879817;28;20248;-82
2021/06/04 03:37:07;;;;;;;5.63;1.37;;;6.20;27.20;;;;;;4879616;28;20194;-83
2021/06/04 03:39:37;;;;;;;8.83;2.27;;;6.30;31.70;;;;;;4879512;28;20208;-83
2021/06/04 03:42:03;;;;;;;3.40;1.10;;;6.40;37.40;;;;;;4879468;28;20600;-82
2021/06/04 03:44:33;;;;;;;4.67;1.33;;;6.40;39.70;;;;;;4896749;28;20669;-82
2021/06/04 03:46:56;;;;;;;6.30;1.90;;;6.50;41.10;;;;;;4901796;28;20266;-83
2021/06/04 03:49:20;;;;;;;5.13;1.60;;;6.50;43.40;;;;;;4896378;28;20246;-81
2021/06/04 03:51:43;;;;;;;7.43;1.83;;;6.60;47.50;;;;;;4905333;28;20218;-83
2021/06/04 03:54:08;;;;;;;4.87;1.47;;;6.70;51.50;;;;;;4904252;28;20201;-83
2021/06/04 03:56:32;;;;;;;7.87;2.07;;;6.80;57.60;;;;;;4882972;28;20189;-84
2021/06/04 03:58:57;;;;;;;12.33;2.97;;;6.90;71.10;;;;;;4895376;28;20822;-82
2021/06/04 04:01:24;;;;;;;9.97;2.40;;;7.00;76.50;;;;;;4899739;28;20219;-80
2021/06/04 04:03:46;;;;;;;8.87;2.27;;;;;;;;;;4882994;28;20251;-82
2021/06/04 04:06:09;;;;;;;8.30;2.17;;;;;;;;;;4865672;28;20194;-83
2021/06/04 04:08:31;;;;;;;6.73;1.90;;;;;;;;;;4886063;28;20243;-82
2021/06/04 04:10:54;;;;;;;9.73;2.33;;;7.40;99.90;;;;;;4867976;28;20236;-82
2021/06/04 04:13:19;;;;;;;5.90;1.60;;;7.50;99.90;;;;;;4887402;28;20251;-82
2021/06/04 04:15:42;;;;;;;6.33;1.80;;;;;;;;;;4860996;28;20214;-81
2021/06/04 04:18:04;;;;;;;5.67;1.63;;;;;;;;;;4889278;28;20231;-82
2021/06/04 04:20:28;;;;;;;7.73;1.87;;;6.40;99.90;;;;;;4883272;28;20228;-81
2021/06/04 04:22:54;;;;;;;8.17;2.00;;;7.90;99.90;;;;;;4881053;28;20590;-83
2021/06/04 04:25:17;;;;;;;8.27;2.10;;;8.00;99.90;;;;;;4878178;28;20247;-83
2021/06/04 04:27:39;;;;;;;7.43;1.87;;;;;;;;;;4883621;28;20193;-83
2021/06/04 04:30:04;;;;;;;4.50;1.50;;;8.30;99.90;;;;;;4869902;28;20602;-82
2021/06/04 04:32:27;;;;;;;6.90;1.90;;;8.30;99.90;;;;;;4883576;28;20198;-81
2021/06/04 04:34:49;;;;;;;8.43;2.20;;;;;;;;;;4884446;28;20678;-83
2021/06/04 04:37:14;;;;;;;8.97;2.27;;;8.60;99.90;;;;;;4867983;28;20247;-82
2021/06/04 04:39:39;;;;;;;10.50;2.60;;;8.70;99.90;;;;;;4862110;28;20255;-84
2021/06/04 04:42:02;;;;;;;7.80;2.13;;;;;;;;;;4879420;28;20357;-83
2021/06/04 04:44:26;;;;;;;5.57;1.50;;;9.00;99.90;;;;;;4866480;28;20226;-82
2021/06/04 04:46:49;;;;;;;9.63;2.27;;;9.20;99.90;;;;;;4890716;28;20195;-82
2021/06/04 04:49:12;;;;;;;5.27;1.47;;;;;;;;;;4884504;28;20193;-83
2021/06/04 04:51:35;;;;;;;6.40;1.60;;;9.40;79.50;;;;;;4878351;28;20239;-83
2021/06/04 04:53:57;;;;;;;11.50;2.53;;;;;;;;;;4885713;28;20699;-83
2021/06/04 04:56:20;;;;;;;8.43;1.90;;;9.70;1.00;;;;;;4860923;28;20193;-83
2021/06/04 04:58:42;;;;;;;6.27;1.53;;;;;;;;;;4883353;28;20258;-82
2021/06/04 05:01:06;;;;;;;6.53;1.40;;;10.00;1.00;;;;;;4879880;28;20282;-82
2021/06/04 05:03:30;;;;;;;6.60;1.63;;;10.10;1.00;;;;;;4882985;28;20200;-83
2021/06/04 05:05:52;;;;;;;9.50;2.17;;;;;;;;;;4858491;28;20225;-82
2021/06/04 05:08:15;;;;;;;8.47;1.97;;;;;;;;;;4883279;28;20230;-82
2021/06/04 05:10:37;;;;;;;8.97;2.00;;;;;;;;;;4876220;28;20250;-82
2021/06/04 05:12:59;;;;;;;7.67;1.90;;;;;;;;;;4885871;28;20185;-81
2021/06/04 05:15:26;;;;;;;6.77;1.57;;;11.00;1.00;;;;;;4884478;28;20201;-82
2021/06/04 05:17:49;;;;;;;9.70;2.07;;;;;;;;;;4884549;28;20185;-80
2021/06/04 05:20:14;;;;;;;5.57;1.27;;;11.30;99.90;;;;;;4872445;28;20259;-82
2021/06/04 05:22:36;;;;;;;8.10;1.73;;;;;;;;;;4883458;28;20670;-82
2021/06/04 05:24:59;;;;;;;11.47;2.47;;;;;;;;;;4883552;28;20212;-81
2021/06/04 05:27:21;;;;;;;9.03;1.83;;;;;;;;;;4891200;28;20254;-80
2021/06/04 05:29:43;;;;;;;4.57;1.13;;;;;;;;;;4879071;28;20189;-77
2021/06/04 05:32:06;;;;;;;5.37;1.20;;;;;;;;;;4889550;28;20578;-83
2021/06/04 05:34:28;;;;;;;6.17;1.40;;;;;;;;;;4883181;28;20200;-82
2021/06/04 05:36:52;;;;;;;9.17;1.83;;;12.30;99.90;;;;;;4880088;28;20554;-80
2021/06/04 05:39:16;;;;;;;4.67;1.10;;;12.50;1.00;;;;;;4887432;28;20589;-82
2021/06/04 05:41:40;;;;;;;7.60;1.60;;;13.20;99.90;;;;;;4882474;28;20242;-81
2021/06/04 05:44:03;;;;;;;4.50;1.10;;;;;;;;;;4883046;28;20225;-82
2021/06/04 05:46:25;;;;;;;3.37;0.77;;;13.00;1.00;;;;;;4883599;28;20258;-83
2021/06/04 05:48:48;;;;;;;9.87;1.97;;;;;;;;;;4887376;28;20610;-81
2021/06/04 05:51:14;;;;;;;5.27;1.27;;;13.30;87.20;;;;;;4877559;28;20243;-86
2021/06/04 05:53:40;;;;;;;6.20;1.40;;;13.50;99.90;;;;;;4884711;28;20185;-81
2021/06/04 05:56:03;;;;;;;11.00;2.20;;;;;;;;;;4881901;28;20724;-84
2021/06/04 05:58:27;;;;;;;8.27;1.77;;;13.80;1.00;;;;;;4884892;28;20242;-83
2021/06/04 06:00:51;;;;;;;24.37;4.70;;;14.10;1.00;;;;;;4883790;28;20216;-84
2021/06/04 06:03:16;;;;;;;5.17;1.10;;;14.10;99.90;;;;;;4889601;28;20216;-78
2021/06/04 06:05:39;;;;;;;6.67;1.50;;;;;;;;;;4875766;28;20654;-81
2021/06/04 06:08:01;;;;;;;9.63;1.90;;;;;;;;;;4862582;28;20240;-83
2021/06/04 06:10:25;;;;;;;2.73;0.70;;;14.90;99.90;;;;;;4880992;28;20256;-79
2021/06/04 06:12:47;;;;;;;11.00;2.17;;;;;;;;;;4887204;28;20232;-81
2021/06/04 06:15:10;;;;;;;7.37;1.47;;;15.30;1.00;;;;;;4874550;28;20181;-83
2021/06/04 06:17:33;;;;;;;7.10;1.43;;;;;;;;;;4884941;28;20197;-83
2021/06/04 06:19:55;;;;;;;9.47;1.87;;;;;;;;;;4883934;28;20197;-81
2021/06/04 06:22:20;;;;;;;5.80;1.23;;;;;;;;;;4885770;28;20232;-80
2021/06/04 06:24:42;;;;;;;6.53;1.33;;;;;;;;;;4879221;28;20247;-83
2021/06/04 06:27:06;;;;;;;6.77;1.27;;;15.90;1.00;;;;;;4891956;28;20709;-83
2021/06/04 06:29:30;;;;;;;18.20;3.37;;;;;;;;;;4876782;28;20240;-81
2021/06/04 06:31:55;;;;;;;13.20;2.43;;;;;;;;;;4885662;28;20539;-83
2021/06/04 06:34:17;;;;;;;5.60;1.13;;;;;;;;;;4877465;28;20223;-86
2021/06/04 06:36:42;;;;;;;7.10;1.40;;;16.20;1.00;;;;;;4882583;28;20192;-79
2021/06/04 06:39:08;;;;;;;9.83;1.80;;;16.30;1.00;;;;;;4884458;28;20197;-82
2021/06/04 06:41:30;;;;;;;4.30;0.87;;;;;;;;;;4889169;28;20678;-79
2021/06/04 06:43:54;;;;;;;13.77;2.47;;;16.40;1.00;;;;;;4892584;28;20228;-84
2021/06/04 06:46:18;;;;;;;5.07;1.00;;;16.60;99.90;;;;;;4876724;28;20198;-85
2021/06/04 06:48:40;;;;;;;6.50;1.33;;;;;;;;;;4894553;28;20243;-81
2021/06/04 06:51:03;;;;;;;6.67;1.20;;;;;;;;;;4893747;28;20181;-85
2021/06/04 06:53:26;;;;;;;3.47;0.70;;;17.00;99.90;;;;;;4894691;28;20235;-82
2021/06/04 06:55:48;;;;;;;8.10;1.53;;;;;;;;;;4894845;28;20635;-84
2021/06/04 06:58:12;;;;;;;7.70;1.50;;;17.30;99.90;;;;;;4895952;28;20185;-85
2021/06/04 07:00:39;;;;;;;54.00;8.97;;;17.50;99.90;;;;;;4895513;28;20934;-86
2021/06/04 07:03:01;;;;;;;10.00;1.80;;;;;;;;;;4895877;28;20671;-86
2021/06/04 07:05:24;;;;;;;2.40;0.47;;;;;;;;;;4898020;28;20234;-81
2021/06/04 07:07:46;;;;;;;5.00;0.83;;;;;;;;;;4897932;28;20178;-79
2021/06/04 07:10:11;;;;;;;5.53;0.97;;;18.60;99.90;;;;;;4897592;28;20918;-87
2021/06/04 07:12:33;;;;;;;4.33;0.70;;;;;;;;;;4868824;28;20221;-83
2021/06/04 07:14:56;;;;;;;21.03;2.97;;;;;;;;;;4888729;28;20337;-81
2021/06/04 07:17:19;;;;;;;8.83;1.30;;;19.60;99.90;;;;;;4887041;28;20618;-83
2021/06/04 07:19:42;;;;;;;8.23;1.30;;;;;;;;;;4879696;28;20201;-81
2021/06/04 07:22:05;;;;;;;7.00;1.10;;;20.10;99.90;;;;;;4882697;28;20231;-83
2021/06/04 07:24:27;;;;;;;9.00;1.40;;;;;;;;;;4880904;28;20254;-83
2021/06/04 07:26:52;;;;;;;14.33;2.20;;;20.50;99.90;;;;;;4889170;28;20189;-84
2021/06/04 07:29:18;;;;;;;11.37;1.77;;;20.80;99.90;;;;;;4887562;28;20251;-86
2021/06/04 07:31:43;;;;;;;9.30;1.43;;;21.20;99.90;;;;;;4890785;28;20608;-81
2021/06/04 07:34:06;;;;;;;4.23;0.70;;;21.40;99.90;;;;;;4893931;28;20665;-84
2021/06/04 07:36:34;;;;;;;9.30;1.50;;;21.50;99.90;;;;;;4879220;28;20197;-83
2021/06/04 07:38:58;;;;;;;12.03;1.83;;;21.80;99.90;;;;;;4886029;28;20189;-83
2021/06/04 07:41:20;;;;;;;8.80;1.40;;;;;;;;;;4887365;28;20215;-81
2021/06/04 07:43:45;;;;;;;7.60;1.23;;;22.50;99.90;;;;;;4881085;28;20218;-83
2021/06/04 07:46:08;;;;;;;9.40;1.47;;;22.80;99.90;;;;;;4888262;28;20193;-83
2021/06/04 07:48:31;;;;;;;10.20;1.60;;;;;;;;;;4878726;28;20638;-80
2021/06/04 07:50:56;;;;;;;16.77;2.47;;;23.00;99.90;;;;;;4884621;28;20189;-83
2021/06/04 07:53:20;;;;;;;9.60;1.43;;;22.90;99.90;;;;;;4884828;28;20191;-80
2021/06/04 07:55:43;;;;;;;9.17;1.40;;;;;;;;;;4880278;28;20253;-81
2021/06/04 07:58:05;;;;;;;10.90;1.70;;;22.60;99.90;;;;;;4882160;28;20189;-83
2021/06/04 08:00:30;;;;;;;30.27;4.47;;;22.50;99.90;;;;;;4884048;28;20223;-81
2021/06/04 08:02:52;;;;;;;14.00;2.10;;;;;;;;;;4886583;28;20307;-82
2021/06/04 08:05:15;;;;;;;9.07;1.50;;;;;;;;;;4893052;28;20226;-83
2021/06/04 08:07:38;;;;;;;9.37;1.50;;;22.30;99.90;;;;;;4895539;28;21948;-85
2021/06/04 08:10:00;;;;;;;15.43;2.33;;;;;;;;;;4893975;28;20243;-83
2021/06/04 08:12:30;;;;;;;8.63;1.40;;;22.30;99.90;;;;;;4877805;28;20219;-79
2021/06/04 08:14:52;;;;;;;11.27;1.73;;;;;;;;;;4877778;28;20210;-84
2021/06/04 08:17:15;;;;;;;8.60;1.37;;;;;;;;;;4896212;28;20740;-81
2021/06/04 08:19:37;;;;;;;15.53;2.40;;;;;;;;;;4895529;28;20582;-81
2021/06/04 08:22:00;;;;;;;22.97;3.30;;;;;;;;;;4894055;28;20217;-84
2021/06/04 08:24:25;;;;;;;12.07;1.93;;;22.30;99.90;;;;;;4894182;28;20240;-84
2021/06/04 08:26:49;;;;;;;12.73;1.97;;;22.40;99.90;;;;;;4872112;28;20233;-81
2021/06/04 08:29:12;;;;;;;9.33;1.50;;;;;;;;;;4876579;28;20183;-81
2021/06/04 08:31:34;;;;;;;10.60;1.60;;;;;;;;;;4888103;28;20232;-76
2021/06/04 08:33:57;;;;;;;24.47;3.70;;;22.60;99.90;;;;;;4893100;28;21494;-83
2021/06/04 08:36:23;;;;;;;12.57;1.93;;;22.80;99.90;;;;;;4885869;28;20190;-84
2021/06/04 08:38:45;;;;;;;21.47;3.30;;;;;;;;;;4874030;28;20197;-81
2021/06/04 08:41:27;;;;;;;11.00;1.73;;;23.00;99.90;;;;;;4877113;28;20663;-84
2021/06/04 08:44:00;;;;;;;20.87;3.17;;;23.30;99.90;;;;;;4876418;28;20222;-80
2021/06/04 08:46:30;;;;;;;14.77;2.23;;;23.50;99.90;;;;;;4894615;28;20210;-86
2021/06/04 08:48:59;;;;;;;21.47;3.10;;;23.60;99.90;;;;;;4888219;28;20582;-77
2021/06/04 08:51:26;;;;;;;12.00;1.77;;;23.90;99.90;;;;;;4894543;28;20412;-77
2021/06/04 08:54:06;;;;;;;22.13;2.90;;;24.20;99.90;;;;;;4894726;28;20187;-81
2021/06/04 08:56:35;;;;;;;24.40;3.03;;;24.70;99.90;;;;;;4889208;28;20254;-78
2021/06/04 08:59:00;;;;;;;28.67;3.40;;;25.00;99.90;;;;;;4888016;28;20194;-77
2021/06/04 09:01:28;;;;;;;33.40;4.03;;;25.40;99.90;;;;;;4884988;28;20279;-85
2021/06/04 09:03:53;;;;;;;27.10;3.37;;;25.90;99.90;;;;;;4892506;28;20189;-76
2021/06/04 09:06:29;;;;;;;22.93;3.53;;;26.20;99.90;;;;;;4894433;28;20187;-79
2021/06/04 09:08:52;;;;;;;61.33;8.57;;;26.70;99.90;;;;;;4887417;28;20183;-84
2021/06/04 09:11:22;;;;;;;12.93;1.90;;;27.20;99.90;;;;;;4894330;28;20213;-83
2021/06/04 09:13:45;;;;;;;12.67;1.70;;;27.70;99.90;;;;;;4892709;28;20204;-81
2021/06/04 09:16:11;;;;;;;14.93;2.20;;;28.10;99.90;;;;;;4875595;28;20197;-81
2021/06/04 09:18:41;;;;;;;32.80;26.30;;;28.50;99.90;;;;;;4885731;28;20227;-82
2021/06/04 09:21:06;;;;;;;23.77;4.50;;;28.90;99.90;;;;;;4872770;28;20205;-82
2021/06/04 09:23:30;;;;;;;14.27;2.03;;;29.70;99.90;;;;;;4874084;28;20260;-84
2021/06/04 09:25:53;;;;;;;38.93;4.83;;;;;;;;;;4888294;28;20195;-81
2021/06/04 09:28:28;;;;;;;14.60;1.93;;;32.10;99.90;;;;;;4892235;28;20209;-77
2021/06/04 09:30:52;;;;;;;35.78;4.57;;;33.60;99.90;;;;;;4878590;28;20702;-81
2021/06/04 09:33:23;;;;;;;14.88;2.05;;;34.10;99.90;;;;;;4894453;28;20611;-83
2021/06/04 09:35:58;;;;;;;15.90;2.17;;;35.20;99.90;;;;;;4891734;28;20417;-80
2021/06/04 09:38:29;;;;;;;22.55;3.05;;;35.70;99.90;;;;;;4889852;28;20732;-83
2021/06/04 09:40:51;;;;;;;38.03;11.68;;;;;;;;;;4893203;28;20211;-79
2021/06/04 09:43:21;;;;;;;40.97;37.10;;;36.90;99.90;;;;;;4883502;28;20283;-82
2021/06/04 09:45:55;;;;;;;38.53;26.25;;;37.90;99.90;;;;;;4886669;28;20188;-81
2021/06/04 09:48:33;;;;;;;22.63;12.38;;;38.90;99.90;;;;;;4875587;28;20654;-80
2021/06/04 09:51:07;;;;;;;48.95;29.17;;;40.70;99.90;;;;;;4884263;28;20237;-79
2021/06/04 09:53:29;;;;;;;92.00;85.40;;;;;;;;;;4893892;28;20180;-83
2021/06/04 09:56:11;;;;;;;49.72;41.90;;;42.40;99.90;;;;;;4890227;28;20181;-81
2021/06/04 09:58:48;;;;;;;26.77;22.10;;;43.00;99.90;;;;;;4893965;28;20192;-82
2021/06/04 10:01:15;;;;;;;34.42;14.35;;;42.30;99.90;;;;;;4888215;28;20184;-86
2021/06/04 10:03:47;;;;;;;21.17;8.95;;;42.50;99.90;;;;;;4893628;28;20212;-85
2021/06/04 10:06:34;;;;;;;15.88;5.90;;;43.20;99.90;;;;;;4892791;28;20192;-83
2021/06/04 10:08:58;;;;;;;26.75;7.88;;;43.60;99.90;;;;;;4887620;28;20222;-77
2021/06/04 10:11:24;;;;;;;19.85;10.48;;;44.30;99.90;;;;;;4893415;28;20775;-80
2021/06/04 10:13:55;;;;;;;85.72;80.10;;;44.80;99.90;;;;;;4886783;28;20177;-79
2021/06/04 10:17:13;;;;;;;155.15;146.00;;;45.80;99.90;;;;;;4892764;28;20196;-81
2021/06/04 10:19:41;;;;;;;277.70;262.50;;;46.70;99.90;;;;;;4893037;28;20876;-83
2021/06/04 10:22:17;;;;;;;153.45;144.07;;;46.90;99.90;;;;;;4890788;28;20228;-80
2021/06/04 10:24:42;;;;;;;104.15;97.40;;;47.30;99.90;;;;;;4866849;28;20880;-85
2021/06/04 10:27:07;;;;;;;124.20;115.78;;;47.80;99.90;;;;;;4892820;28;20184;-84
2021/06/04 10:29:30;;;;;;;122.35;112.50;;;;;;;;;;4892676;28;20237;-81
2021/06/04 10:31:58;;;;;;;104.25;95.55;;;47.30;99.90;;;;;;4891165;28;20259;-75
2021/06/04 10:34:52;;;;;;;84.82;77.57;;;47.50;99.90;;;;;;4884723;28;20201;-84
2021/06/04 10:37:18;;;;;;;57.63;52.30;;;47.80;99.90;;;;;;4893861;28;20180;-77
2021/06/04 10:39:45;;;;;;;58.25;53.28;;;47.90;99.90;;;;;;4892014;28;20212;-78
2021/06/04 10:42:16;;;;;;;43.30;38.72;;;48.30;99.90;;;;;;4892630;28;20277;-76
2021/06/04 10:44:49;;;;;;;31.63;28.38;;;48.30;99.90;;;;;;4893269;28;20238;-78
2021/06/04 10:47:21;;;;;;;43.22;39.70;;;48.20;99.90;;;;;;4896229;28;20176;-82
2021/06/04 10:49:52;;;;;;;68.90;63.67;;;48.90;99.90;;;;;;4869771;28;20197;-80
2021/06/04 10:52:23;;;;;;;61.35;55.53;;;49.10;99.90;;;;;;4891613;28;20196;-81
2021/06/04 10:54:56;;;;;;;79.82;74.50;;;49.20;99.90;;;;;;4889343;28;20172;-80
2021/06/04 10:57:25;;;;;;;89.25;83.07;;;49.50;99.90;;;;;;4894786;28;20611;-79
2021/06/04 10:59:53;;;;;;;127.93;119.63;;;48.70;99.90;;;;;;4892872;28;20192;-77
2021/06/04 11:02:24;;;;;;;117.05;109.22;;;48.80;99.90;;;;;;4887067;28;20286;-81
2021/06/04 11:05:07;;;;;;;63.13;58.35;;;48.60;99.90;;;;;;4884876;28;20231;-79
2021/06/04 11:07:34;;;;;;;117.32;110.38;;;47.20;99.90;;;;;;4877558;28;20208;-76
2021/06/04 11:10:06;;;;;;;105.75;98.05;;;47.00;99.90;;;;;;4875960;28;20189;-78
2021/06/04 11:12:48;;;;;;;85.32;80.03;;;47.40;99.90;;;;;;4878044;28;20180;-80
2021/06/04 11:15:18;;;;;;;93.82;87.50;;;47.50;99.90;;;;;;4876922;28;20215;-84
2021/06/04 11:17:47;;;;;;;99.47;93.47;;;47.80;99.90;;;;;;4878256;28;20185;-84
2021/06/04 11:20:15;;;;;;;92.70;86.65;;;48.50;99.90;;;;;;4875959;28;20745;-83
2021/06/04 11:22:55;;;;;;;103.25;97.03;;;49.00;99.90;;;;;;4877799;28;20297;-84
2021/06/04 11:25:31;;;;;;;94.47;88.65;;;49.60;99.90;;;;;;4878118;28;20176;-84
2021/06/04 11:28:06;;;;;;;85.03;78.78;;;50.20;99.90;;;;;;4859718;28;20270;-82
2021/06/04 11:30:31;;;;;;;79.72;74.53;;;50.30;99.90;;;;;;4876184;28;20184;-81
2021/06/04 11:33:01;;;;;;;69.50;64.20;;;49.70;99.90;;;;;;4876645;28;20200;-81
2021/06/04 11:35:26;;;;;;;81.40;76.43;;;50.20;99.90;;;;;;4877106;28;20196;-84
2021/06/04 11:37:55;;;;;;;85.50;80.07;;;50.00;99.90;;;;;;4878035;28;20246;-79
2021/06/04 11:40:28;;;;;;;97.03;90.88;;;49.70;99.90;;;;;;4876230;28;20262;-79
2021/06/04 11:42:54;;;;;;;116.57;108.82;;;49.50;99.90;;;;;;4858791;28;20683;-82
2021/06/04 11:45:22;;;;;;;188.52;178.63;;;49.70;99.90;;;;;;4876456;28;20204;-83
2021/06/04 11:47:44;;;;;;;297.20;282.15;;;;;;;;;;4876530;28;20749;-82
2021/06/04 11:50:25;;;;;;;455.15;428.27;;;50.70;99.90;;;;;;4876592;28;20225;-84
2021/06/04 11:52:48;;;;;;;306.35;290.58;;;50.90;99.90;;;;;;4884711;28;20709;-81
2021/06/04 11:55:13;;;;;;;444.70;417.92;;;51.00;99.90;;;;;;4896381;28;20187;-83
2021/06/04 11:57:48;;;;;;;503.10;468.85;;;51.10;99.90;;;;;;4896590;28;20261;-80
2021/06/04 12:00:38;;;;;;;503.92;468.45;;;51.20;99.90;;;;;;4894559;28;20238;-84
2021/06/04 12:03:18;;;;;;;506.75;470.17;;;50.50;99.90;;;;;;4873452;28;20294;-80
2021/06/04 12:05:43;;;;;;;484.73;451.95;;;50.00;99.90;;;;;;4876973;28;20176;-80
2021/06/04 12:08:36;;;;;;;474.80;442.33;;;49.40;99.90;;;;;;4876782;28;20189;-83
2021/06/04 12:11:02;;;;;;;529.58;484.27;;;48.80;99.90;;;;;;4874864;28;20188;-83
2021/06/04 12:13:33;;;;;;;526.65;480.05;;;48.60;99.90;;;;;;4876905;28;20188;-81
2021/06/04 12:15:55;;;;;;;526.83;480.10;;;;;;;;;;4876515;28;20184;-83
2021/06/04 12:18:35;;;;;;;528.78;482.10;;;48.00;99.90;;;;;;4876654;28;20246;-75
2021/06/04 12:20:59;;;;;;;508.85;466.30;;;48.00;99.90;;;;;;4876169;28;20219;-83
2021/06/04 12:23:47;;;;;;;511.17;470.02;;;48.00;99.90;;;;;;4875999;28;20662;-82
2021/06/04 12:26:09;;;;;;;509.92;467.48;;;;;;;;;;4877153;28;20584;-79
2021/06/04 12:28:35;;;;;;;495.60;458.48;;;48.80;99.90;;;;;;4876596;28;20207;-78
2021/06/04 12:31:06;;;;;;;490.98;453.90;;;49.10;99.90;;;;;;4875814;28;20597;-88
2021/06/04 12:33:57;;;;;;;437.02;409.52;;;48.80;99.90;;;;;;4875442;28;20188;-84
2021/06/04 12:37:04;;;;;;;424.73;398.45;;;48.80;99.90;;;;;;4876453;28;20632;-83
2021/06/04 12:39:49;;;;;;;384.60;361.80;;;48.20;99.90;;;;;;4875325;28;20204;-79
2021/06/04 12:42:18;;;;;;;331.42;312.85;;;47.90;99.90;;;;;;4877780;28;20258;-82
2021/06/04 12:44:51;;;;;;;308.83;292.45;;;48.40;99.90;;;;;;4876489;28;20755;-83
2021/06/04 12:47:14;;;;;;;321.17;303.92;;;;;;;;;;4875210;28;20682;-83
2021/06/04 12:49:37;;;;;;;295.63;278.55;;;49.20;99.90;;;;;;4857746;28;20205;-83
2021/06/04 12:52:01;;;;;;;228.60;215.43;;;49.50;99.90;;;;;;4874262;28;20192;-83
2021/06/04 12:54:26;;;;;;;240.98;228.57;;;49.50;99.90;;;;;;4875027;28;20780;-84
2021/06/04 12:56:50;;;;;;;217.63;206.60;;;49.70;99.90;;;;;;4874095;28;20192;-78
2021/06/04 12:59:16;;;;;;;198.23;187.30;;;50.00;99.90;;;;;;4874693;28;20189;-80
2021/06/04 13:01:58;;;;;;;150.23;141.73;;;50.20;99.90;;;;;;4878254;28;20277;-85
2021/06/04 13:04:24;;;;;;;160.75;151.50;;;50.00;99.90;;;;;;4893629;28;20658;-83
2021/06/04 13:06:49;;;;;;;143.77;136.05;;;49.70;99.90;;;;;;4893644;28;20203;-79
2021/06/04 13:09:26;;;;;;;137.98;129.93;;;49.50;99.90;;;;;;4895250;28;20340;-80